createdAt,value
2018-02-15T00:01:06.852Z,4.36
2018-02-15T00:02:16.890Z,4.17
2018-02-15T00:03:26.939Z,4.36
2018-02-15T00:04:36.720Z,4.17
2018-02-15T00:05:46.511Z,4.32
2018-02-15T00:06:56.545Z,4.32
2018-02-15T00:08:06.596Z,4.14
2018-02-15T00:09:16.662Z,4.11
2018-02-15T00:10:26.442Z,4.22
2018-02-15T00:11:36.604Z,4.2
2018-02-15T00:12:46.905Z,4.21
2018-02-15T00:13:56.970Z,4.24
2018-02-15T00:15:06.760Z,4.22
2018-02-15T00:16:16.540Z,4.24
2018-02-15T00:17:26.597Z,4.11
2018-02-15T00:18:36.680Z,4.2
2018-02-15T00:19:46.722Z,4.14
2018-02-15T00:20:56.509Z,4.15
2018-02-15T00:22:06.555Z,4.02
2018-02-15T00:23:16.600Z,4.08
2018-02-15T00:24:26.655Z,3.96
2018-02-15T00:25:36.691Z,4.08
2018-02-15T00:26:46.728Z,3.94
2018-02-15T00:27:56.500Z,3.89
2018-02-15T00:29:06.295Z,3.86
2018-02-15T00:30:15.824Z,3.85
2018-02-15T00:31:25.596Z,3.89
2018-02-15T00:32:35.651Z,3.92
2018-02-15T00:33:45.690Z,3.84
2018-02-15T00:34:55.720Z,3.76
2018-02-15T00:36:05.762Z,3.75
2018-02-15T00:37:15.805Z,3.66
2018-02-15T00:38:25.585Z,3.75
2018-02-15T00:39:35.641Z,3.67
2018-02-15T00:40:45.689Z,3.69
2018-02-15T00:41:55.481Z,3.71
2018-02-15T00:43:05.532Z,3.63
2018-02-15T00:44:15.317Z,3.63
2018-02-15T00:45:25.367Z,3.66
2018-02-15T00:46:35.416Z,3.57
2018-02-15T00:47:45.451Z,3.51
2018-02-15T00:48:55.487Z,3.54
2018-02-15T00:50:05.548Z,3.56
2018-02-15T00:51:15.346Z,3.53
2018-02-15T00:52:25.397Z,3.53
2018-02-15T00:53:35.462Z,3.58
2018-02-15T00:54:45.240Z,3.48
2018-02-15T00:55:55.292Z,3.56
2018-02-15T00:57:05.339Z,3.54
2018-02-15T00:58:15.391Z,3.49
2018-02-15T00:59:25.437Z,3.4
2018-02-15T01:00:35.221Z,3.43
2018-02-15T01:01:46.016Z,3.32
2018-02-15T01:02:56.062Z,3.34
2018-02-15T01:04:06.088Z,3.34
2018-02-15T01:05:16.132Z,3.35
2018-02-15T01:06:26.188Z,3.35
2018-02-15T01:07:35.970Z,3.32
2018-02-15T01:08:45.756Z,3.35
2018-02-15T01:09:55.800Z,3.34
2018-02-15T01:11:05.866Z,3.32
2018-02-15T01:12:15.652Z,3.24
2018-02-15T01:13:25.698Z,3.24
2018-02-15T01:14:36.858Z,3.26
2018-02-15T01:15:46.947Z,3.2
2018-02-15T01:16:56.469Z,3.3
2018-02-15T01:18:06.512Z,3.23
2018-02-15T01:19:16.595Z,3.17
2018-02-15T01:20:26.644Z,3.17
2018-02-15T01:21:36.690Z,3.14
2018-02-15T01:22:46.472Z,3.13
2018-02-15T01:23:56.526Z,3.14
2018-02-15T01:25:06.630Z,3.08
2018-02-15T01:26:16.409Z,3.14
2018-02-15T01:27:26.204Z,3.17
2018-02-15T01:28:37.282Z,3.14
2018-02-15T01:29:47.304Z,3.14
2018-02-15T01:30:57.353Z,3.09
2018-02-15T01:32:07.137Z,3.16
2018-02-15T01:33:17.182Z,3.14
2018-02-15T01:34:26.709Z,3.14
2018-02-15T01:35:36.761Z,3.08
2018-02-15T01:36:46.826Z,3.06
2018-02-15T01:37:56.615Z,3.13
2018-02-15T01:39:06.667Z,3.19
2018-02-15T01:40:16.718Z,3.11
2018-02-15T01:41:26.491Z,3.11
2018-02-15T01:42:36.549Z,3.09
2018-02-15T01:43:46.586Z,3.13
2018-02-15T01:44:56.387Z,3.09
2018-02-15T01:46:06.437Z,3.09
2018-02-15T01:47:16.214Z,3.02
2018-02-15T01:48:26.287Z,3.16
2018-02-15T01:49:36.329Z,3.11
2018-02-15T01:50:46.102Z,3.08
2018-02-15T01:51:56.146Z,3.09
2018-02-15T01:53:06.201Z,3.05
2018-02-15T01:54:15.968Z,3.16
2018-02-15T01:55:26.023Z,3.13
2018-02-15T01:56:36.083Z,3.11
2018-02-15T01:57:46.116Z,3.06
2018-02-15T01:58:56.173Z,3.03
2018-02-15T02:00:06.218Z,3.08
2018-02-15T02:01:15.997Z,3.05
2018-02-15T02:02:25.777Z,2.96
2018-02-15T02:03:35.572Z,3.08
2018-02-15T02:04:45.381Z,2.99
2018-02-15T02:05:55.468Z,2.99
2018-02-15T02:07:04.984Z,3.03
2018-02-15T02:08:14.513Z,2.95
2018-02-15T02:09:24.552Z,2.93
2018-02-15T02:10:34.360Z,2.88
2018-02-15T02:11:44.401Z,2.96
2018-02-15T02:12:54.194Z,2.91
2018-02-15T02:14:04.225Z,2.91
2018-02-15T02:15:14.282Z,2.85
2018-02-15T02:16:24.302Z,2.91
2018-02-15T02:17:34.341Z,2.95
2018-02-15T02:18:44.112Z,2.88
2018-02-15T02:19:53.903Z,2.9
2018-02-15T02:21:03.945Z,2.87
2018-02-15T02:22:13.990Z,2.88
2018-02-15T02:23:24.036Z,2.83
2018-02-15T02:24:34.317Z,2.77
2018-02-15T02:25:44.108Z,2.93
2018-02-15T02:26:54.149Z,2.93
2018-02-15T02:28:04.206Z,2.83
2018-02-15T02:29:14.248Z,2.91
2018-02-15T02:30:24.049Z,2.91
2018-02-15T02:31:34.121Z,2.93
2018-02-15T02:32:44.165Z,2.83
2018-02-15T02:33:54.226Z,2.77
2018-02-15T02:35:04.277Z,2.8
2018-02-15T02:36:14.322Z,2.78
2018-02-15T02:37:24.382Z,2.83
2018-02-15T02:38:34.442Z,2.7
2018-02-15T02:39:44.486Z,2.72
2018-02-15T02:40:54.534Z,2.8
2018-02-15T02:42:04.580Z,2.77
2018-02-15T02:43:14.613Z,2.78
2018-02-15T02:44:24.651Z,2.85
2018-02-15T02:45:34.449Z,2.77
2018-02-15T02:46:44.257Z,2.8
2018-02-15T02:47:54.322Z,2.77
2018-02-15T02:49:04.358Z,2.78
2018-02-15T02:50:14.424Z,2.81
2018-02-15T02:51:24.213Z,2.78
2018-02-15T02:52:34.308Z,2.9
2018-02-15T02:53:44.375Z,2.93
2018-02-15T02:54:54.430Z,2.98
2018-02-15T02:56:04.467Z,2.95
2018-02-15T02:57:14.511Z,2.91
2018-02-15T02:58:24.310Z,2.93
2018-02-15T02:59:34.096Z,2.98
2018-02-15T03:00:43.902Z,2.91
2018-02-15T03:01:53.966Z,2.93
2018-02-15T03:03:04.025Z,2.95
2018-02-15T03:04:13.806Z,2.96
2018-02-15T03:35:57.428Z,-0.19
2018-02-15T03:37:07.460Z,-0.22
2018-02-15T03:38:17.526Z,-0.23
2018-02-15T03:39:27.311Z,-0.1
2018-02-15T03:40:37.354Z,-0.15
2018-02-15T03:41:47.442Z,0.06
2018-02-15T03:42:57.498Z,0.19
2018-02-15T03:44:07.280Z,0.26
2018-02-15T03:45:17.072Z,0.37
2018-02-15T03:46:26.850Z,0.56
2018-02-15T03:47:36.911Z,0.71
2018-02-15T03:48:46.693Z,0.92
2018-02-15T03:49:56.471Z,1
2018-02-15T03:51:06.515Z,1.15
2018-02-15T03:52:16.029Z,1.15
2018-02-15T03:53:26.121Z,1.32
2018-02-15T03:54:35.898Z,1.4
2018-02-15T03:55:45.943Z,1.6
2018-02-15T03:56:55.996Z,1.58
2018-02-15T03:58:05.776Z,1.74
2018-02-15T03:59:15.573Z,1.86
2018-02-15T04:00:25.344Z,1.79
2018-02-15T04:01:35.116Z,1.94
2018-02-15T04:02:45.167Z,1.86
2018-02-15T04:03:55.187Z,1.98
2018-02-15T04:05:05.266Z,2.02
2018-02-15T04:06:15.366Z,2.04
2018-02-15T04:07:25.141Z,2.04
2018-02-15T04:08:35.182Z,2.16
2018-02-15T04:09:45.205Z,2.18
2018-02-15T04:10:55.254Z,2.22
2018-02-15T04:12:05.312Z,2.22
2018-02-15T04:13:15.086Z,2.18
2018-02-15T04:14:24.862Z,2.18
2018-02-15T04:15:34.897Z,2.2
2018-02-15T04:16:44.989Z,2.24
2018-02-15T04:17:54.793Z,2.2
2018-02-15T04:19:04.838Z,2.29
2018-02-15T04:20:14.889Z,2.3
2018-02-15T04:21:24.401Z,2.29
2018-02-15T04:22:34.433Z,2.34
2018-02-15T04:23:44.466Z,2.36
2018-02-15T04:24:54.241Z,2.22
2018-02-15T04:26:04.295Z,2.34
2018-02-15T04:27:14.340Z,2.3
2018-02-15T04:28:24.335Z,2.33
2018-02-15T04:29:34.434Z,2.34
2018-02-15T04:30:44.480Z,2.34
2018-02-15T04:31:54.527Z,2.3
2018-02-15T04:33:04.564Z,2.29
2018-02-15T04:34:14.600Z,2.34
2018-02-15T04:35:24.652Z,2.31
2018-02-15T04:36:34.730Z,2.26
2018-02-15T04:37:44.765Z,2.31
2018-02-15T04:38:54.804Z,2.31
2018-02-15T04:40:04.566Z,2.33
2018-02-15T04:41:14.352Z,2.23
2018-02-15T04:42:23.883Z,2.27
2018-02-15T04:43:33.928Z,2.31
2018-02-15T04:44:43.971Z,2.27
2018-02-15T04:45:54.025Z,2.31
2018-02-15T04:47:03.818Z,2.26
2018-02-15T04:48:13.873Z,2.18
2018-02-15T04:49:23.950Z,2.29
2018-02-15T04:50:33.733Z,2.24
2018-02-15T04:51:43.774Z,2.29
2018-02-15T04:52:53.554Z,2.26
2018-02-15T04:54:03.354Z,2.22
2018-02-15T04:55:13.130Z,2.27
2018-02-15T04:56:22.666Z,2.29
2018-02-15T04:57:32.735Z,2.26
2018-02-15T04:58:42.788Z,2.16
2018-02-15T04:59:52.819Z,2.23
2018-02-15T05:01:02.602Z,2.29
2018-02-15T05:02:12.378Z,2.22
2018-02-15T05:03:22.476Z,2.2
2018-02-15T05:04:32.281Z,2.2
2018-02-15T05:05:42.307Z,2.16
2018-02-15T05:06:52.370Z,2.16
2018-02-15T05:08:02.422Z,2.12
2018-02-15T05:09:12.471Z,2.12
2018-02-15T05:10:22.518Z,2.2
2018-02-15T05:11:32.560Z,2.22
2018-02-15T05:12:42.625Z,2.2
2018-02-15T05:13:52.696Z,2.18
2018-02-15T05:15:02.852Z,2.15
2018-02-15T05:16:12.385Z,2.15
2018-02-15T05:17:22.437Z,2.11
2018-02-15T05:18:32.210Z,2.2
2018-02-15T05:19:42.253Z,2.12
2018-02-15T05:20:52.312Z,2.13
2018-02-15T05:22:02.350Z,2.15
2018-02-15T05:23:11.875Z,2.09
2018-02-15T05:24:21.657Z,2.13
2018-02-15T05:25:31.692Z,2.13
2018-02-15T05:26:41.500Z,2.08
2018-02-15T05:27:51.279Z,2.06
2018-02-15T05:29:01.324Z,2.01
2018-02-15T05:30:11.380Z,2.06
2018-02-15T05:31:21.426Z,1.98
2018-02-15T05:32:31.470Z,2.04
2018-02-15T05:33:41.258Z,1.98
2018-02-15T05:34:51.304Z,1.98
2018-02-15T05:36:01.091Z,2.05
2018-02-15T05:37:11.127Z,2.01
2018-02-15T05:38:20.905Z,2.09
2018-02-15T05:39:30.946Z,2.12
2018-02-15T05:40:40.998Z,2.06
2018-02-15T05:41:51.041Z,2.05
2018-02-15T05:43:01.121Z,2.11
2018-02-15T05:44:11.151Z,2.01
2018-02-15T05:45:22.947Z,2.08
2018-02-15T05:46:32.996Z,2.11
2018-02-15T05:47:43.051Z,2.09
2018-02-15T05:48:53.089Z,2.13
2018-02-15T05:50:03.134Z,2.11
2018-02-15T05:51:12.916Z,1.98
2018-02-15T05:52:22.956Z,2.12
2018-02-15T05:53:33.005Z,2.05
2018-02-15T05:54:42.779Z,2.12
2018-02-15T05:55:52.833Z,2.13
2018-02-15T05:57:02.868Z,2.09
2018-02-15T05:58:12.651Z,2.01
2018-02-15T05:59:22.704Z,2.06
2018-02-15T06:00:32.481Z,2.08
2018-02-15T06:01:42.352Z,2.09
2018-02-15T06:02:52.401Z,2.12
2018-02-15T06:04:02.495Z,2.22
2018-02-15T06:05:12.548Z,2.09
2018-02-15T06:06:22.321Z,2.18
2018-02-15T06:07:32.106Z,2.18
2018-02-15T06:08:42.173Z,2.24
2018-02-15T06:09:52.216Z,2.16
2018-02-15T06:11:02.303Z,2.13
2018-02-15T06:12:12.362Z,2.22
2018-02-15T06:13:22.200Z,2.15
2018-02-15T06:14:31.993Z,2.18
2018-02-15T06:15:42.028Z,2.23
2018-02-15T06:16:51.819Z,2.26
2018-02-15T06:18:01.614Z,2.3
2018-02-15T06:19:11.398Z,2.31
2018-02-15T06:20:21.443Z,2.34
2018-02-15T06:21:31.488Z,2.34
2018-02-15T06:22:41.519Z,2.41
2018-02-15T06:23:51.570Z,2.45
2018-02-15T06:25:01.610Z,2.45
2018-02-15T06:26:11.389Z,2.49
2018-02-15T06:27:21.430Z,2.58
2018-02-15T06:28:31.497Z,2.55
2018-02-15T06:29:41.536Z,2.6
2018-02-15T06:30:51.324Z,2.7
2018-02-15T06:32:01.358Z,2.72
2018-02-15T06:33:11.397Z,2.81
2018-02-15T06:34:21.450Z,2.77
2018-02-15T06:35:31.551Z,2.73
2018-02-15T06:36:41.653Z,2.9
2018-02-15T06:37:51.437Z,2.88
2018-02-15T06:39:01.222Z,2.99
2018-02-15T06:40:11.008Z,3.11
2018-02-15T06:41:21.049Z,3.03
2018-02-15T06:42:31.108Z,3.14
2018-02-15T06:43:40.878Z,3.14
2018-02-15T06:44:50.932Z,3.26
2018-02-15T06:46:00.993Z,3.29
2018-02-15T06:47:10.774Z,3.4
2018-02-15T06:48:20.819Z,3.32
2018-02-15T06:49:30.595Z,3.4
2018-02-15T06:50:40.641Z,3.4
2018-02-15T06:51:50.445Z,3.51
2018-02-15T06:53:00.499Z,3.56
2018-02-15T06:54:10.593Z,3.54
2018-02-15T06:55:20.644Z,3.54
2018-02-15T06:56:30.696Z,3.6
2018-02-15T06:57:40.767Z,3.72
2018-02-15T06:58:50.549Z,3.71
2018-02-15T07:00:00.597Z,3.75
2018-02-15T07:01:10.688Z,3.79
2018-02-15T07:02:19.955Z,3.74
2018-02-15T07:03:30.001Z,3.85
2018-02-15T07:04:40.049Z,3.79
2018-02-15T07:05:50.158Z,3.92
2018-02-15T07:07:00.201Z,3.85
2018-02-15T07:08:10.258Z,3.97
2018-02-15T07:09:19.787Z,3.96
2018-02-15T07:10:29.841Z,4.02
2018-02-15T07:11:39.887Z,4.12
2018-02-15T07:12:49.941Z,4.18
2018-02-15T07:13:59.987Z,4.15
2018-02-15T07:15:10.019Z,4.28
2018-02-15T07:16:20.190Z,4.3
2018-02-15T07:17:29.774Z,4.18
2018-02-15T07:18:39.819Z,4.38
2018-02-15T07:19:49.597Z,4.39
2018-02-15T07:20:59.647Z,4.35
2018-02-15T07:22:09.697Z,4.51
2018-02-15T07:23:19.743Z,4.51
2018-02-15T07:24:29.805Z,4.51
2018-02-15T07:25:39.890Z,4.57
2018-02-15T07:26:49.950Z,4.72
2018-02-15T07:27:59.728Z,4.64
2018-02-15T07:29:09.776Z,4.76
2018-02-15T07:30:19.836Z,4.78
2018-02-15T07:31:29.877Z,4.92
2018-02-15T07:32:39.938Z,4.92
2018-02-15T07:33:49.732Z,4.98
2018-02-15T07:34:59.793Z,5.13
2018-02-15T07:36:09.842Z,5.12
2018-02-15T07:37:19.891Z,5.24
2018-02-15T07:38:29.950Z,5.1
2018-02-15T07:39:39.992Z,5.28
2018-02-15T07:40:50.043Z,5.27
2018-02-15T07:41:59.854Z,5.37
2018-02-15T07:43:09.918Z,5.39
2018-02-15T07:44:19.963Z,5.37
2018-02-15T07:45:29.812Z,5.51
2018-02-15T07:46:39.627Z,5.6
2018-02-15T07:47:49.416Z,5.52
2018-02-15T07:48:59.208Z,5.63
2018-02-15T07:50:09.260Z,5.73
2018-02-15T07:51:19.296Z,5.84
2018-02-15T07:52:30.586Z,5.8
2018-02-15T07:53:40.372Z,5.84
2018-02-15T07:54:50.421Z,5.8
2018-02-15T07:56:00.461Z,5.78
2018-02-15T07:57:10.503Z,5.85
2018-02-15T07:58:20.549Z,5.8
2018-02-15T07:59:30.605Z,5.85
2018-02-15T08:00:40.653Z,5.87
2018-02-15T08:01:50.440Z,5.88
2018-02-15T08:03:00.477Z,5.98
2018-02-15T08:04:10.544Z,6.06
2018-02-15T08:05:20.329Z,6.06
2018-02-15T08:06:30.118Z,6.18
2018-02-15T08:07:40.173Z,6.09
2018-02-15T08:08:49.963Z,6.17
2018-02-15T08:09:59.763Z,6.21
2018-02-15T08:11:09.817Z,6.34
2018-02-15T08:12:19.345Z,6.28
2018-02-15T08:13:29.450Z,6.36
2018-02-15T08:14:39.504Z,6.4
2018-02-15T08:15:49.563Z,6.46
2018-02-15T08:16:59.615Z,6.58
2018-02-15T08:18:09.660Z,6.57
2018-02-15T08:19:19.696Z,6.67
2018-02-15T08:20:29.761Z,6.75
2018-02-15T08:21:39.874Z,6.67
2018-02-15T08:22:49.678Z,6.73
2018-02-15T08:23:59.743Z,6.78
2018-02-15T08:25:09.541Z,6.76
2018-02-15T08:26:19.582Z,6.8
2018-02-15T08:27:29.637Z,6.79
2018-02-15T08:28:39.439Z,6.82
2018-02-15T08:29:49.231Z,6.97
2018-02-15T08:30:58.754Z,6.95
2018-02-15T08:32:08.539Z,7.12
2018-02-15T08:33:18.597Z,7.19
2018-02-15T08:34:28.648Z,7.13
2018-02-15T08:35:38.446Z,7.13
2018-02-15T08:36:48.224Z,7.15
2018-02-15T08:37:58.287Z,7.19
2018-02-15T08:39:08.331Z,7.18
2018-02-15T08:40:18.380Z,7.26
2018-02-15T08:41:28.175Z,7.31
2018-02-15T08:42:38.215Z,7.19
2018-02-15T08:43:48.257Z,7.33
2018-02-15T08:44:58.092Z,7.47
2018-02-15T08:46:08.141Z,7.51
2018-02-15T08:47:18.214Z,7.52
2018-02-15T08:48:28.286Z,7.61
2018-02-15T08:49:38.329Z,7.64
2018-02-15T08:50:48.375Z,7.67
2018-02-15T08:51:58.433Z,7.7
2018-02-15T08:53:08.484Z,7.75
2018-02-15T08:54:18.543Z,7.83
2018-02-15T08:55:28.326Z,7.85
2018-02-15T08:56:38.132Z,7.86
2018-02-15T08:57:48.183Z,7.78
2018-02-15T08:58:58.240Z,7.89
2018-02-15T09:00:08.431Z,7.85
2018-02-15T09:01:18.488Z,7.88
2018-02-15T09:02:28.294Z,7.89
2018-02-15T09:03:38.420Z,7.92
2018-02-15T09:04:48.499Z,7.92
2018-02-15T09:05:58.587Z,7.98
2018-02-15T09:07:08.670Z,8.03
2018-02-15T09:08:18.474Z,8.09
2018-02-15T09:09:28.535Z,8.1
2018-02-15T09:10:38.660Z,8.14
2018-02-15T09:11:48.722Z,8.28
2018-02-15T09:12:58.869Z,8.1
2018-02-15T09:14:08.732Z,8.31
2018-02-15T09:15:18.820Z,8.35
2018-02-15T09:16:28.984Z,8.39
2018-02-15T09:17:38.810Z,8.53
2018-02-15T09:18:48.657Z,8.58
2018-02-15T09:19:58.458Z,8.64
2018-02-15T09:21:08.654Z,8.69
2018-02-15T09:22:18.735Z,8.92
2018-02-15T09:23:28.782Z,8.89
2018-02-15T09:24:38.917Z,8.97
2018-02-15T09:25:50.392Z,9.03
2018-02-15T09:27:00.206Z,9.05
2018-02-15T09:28:10.345Z,9.16
2018-02-15T09:29:20.410Z,9.14
2018-02-15T09:30:30.468Z,9.09
2018-02-15T09:31:40.532Z,9.16
2018-02-15T09:32:50.627Z,9.32
2018-02-15T09:34:00.435Z,9.21
2018-02-15T09:35:10.524Z,9.19
2018-02-15T09:36:20.579Z,9.27
2018-02-15T09:37:30.120Z,9.37
2018-02-15T09:38:40.175Z,9.37
2018-02-15T09:39:50.223Z,9.42
2018-02-15T09:41:00.310Z,9.34
2018-02-15T09:42:10.114Z,9.34
2018-02-15T09:43:20.198Z,9.34
2018-02-15T09:44:30.278Z,9.34
2018-02-15T09:45:40.111Z,9.27
2018-02-15T09:46:49.950Z,9.35
2018-02-15T09:48:00.062Z,9.26
2018-02-15T09:49:10.125Z,9.37
2018-02-15T09:50:20.192Z,9.42
2018-02-15T09:51:29.992Z,9.52
2018-02-15T09:52:40.085Z,9.64
2018-02-15T09:53:49.888Z,9.63
2018-02-15T09:55:00.048Z,9.55
2018-02-15T09:56:10.431Z,9.57
2018-02-15T09:57:20.529Z,9.66
2018-02-15T09:58:30.323Z,9.64
2018-02-15T09:59:40.157Z,9.64
2018-02-15T10:00:49.739Z,9.64
2018-02-15T10:01:59.807Z,9.77
2018-02-15T10:03:09.892Z,9.77
2018-02-15T10:04:19.949Z,9.84
2018-02-15T10:05:31.060Z,9.9
2018-02-15T10:06:41.121Z,9.96
2018-02-15T10:07:51.190Z,10.05
2018-02-15T10:09:01.297Z,10.1
2018-02-15T10:10:11.364Z,10.21
2018-02-15T10:11:21.433Z,10.28
2018-02-15T10:12:31.251Z,10.36
2018-02-15T10:13:41.325Z,10.51
2018-02-15T10:14:51.396Z,10.49
2018-02-15T10:16:01.195Z,10.49
2018-02-15T10:17:11.308Z,10.51
2018-02-15T10:18:21.088Z,10.57
2018-02-15T10:19:31.161Z,10.44
2018-02-15T10:20:40.782Z,10.47
2018-02-15T10:21:50.842Z,10.51
2018-02-15T10:23:00.905Z,10.46
2018-02-15T10:24:10.977Z,10.52
2018-02-15T10:25:21.049Z,10.52
2018-02-15T10:26:30.849Z,10.55
2018-02-15T10:27:40.900Z,10.61
2018-02-15T10:28:50.767Z,10.65
2018-02-15T10:30:00.611Z,10.65
2018-02-15T10:31:10.685Z,10.69
2018-02-15T10:32:20.850Z,10.44
2018-02-15T10:33:30.672Z,10.13
2018-02-15T10:34:40.472Z,9.98
2018-02-15T10:35:50.555Z,9.96
2018-02-15T10:37:00.349Z,10.15
2018-02-15T10:38:10.422Z,10.29
2018-02-15T10:39:20.485Z,10.36
2018-02-15T10:40:30.285Z,10.44
2018-02-15T10:41:40.080Z,10.61
2018-02-15T10:42:50.155Z,10.36
2018-02-15T10:44:00.217Z,10.08
2018-02-15T10:45:11.111Z,9.82
2018-02-15T10:46:21.024Z,9.75
2018-02-15T10:47:31.107Z,9.75
2018-02-15T10:48:42.331Z,9.63
2018-02-15T10:49:52.140Z,9.56
2018-02-15T10:51:02.216Z,9.57
2018-02-15T10:52:12.342Z,9.63
2018-02-15T10:53:22.404Z,9.6
2018-02-15T10:54:34.117Z,9.47
2018-02-15T10:55:44.186Z,9.6
2018-02-15T10:56:54.264Z,9.59
2018-02-15T10:58:04.380Z,9.66
2018-02-15T10:59:14.452Z,9.53
2018-02-15T11:00:24.524Z,9.53
2018-02-15T11:01:34.592Z,9.53
2018-02-15T11:02:44.771Z,9.55
2018-02-15T11:03:54.847Z,9.63
2018-02-15T11:05:04.914Z,9.67
2018-02-15T11:06:15.003Z,9.66
2018-02-15T11:07:25.068Z,9.66
2018-02-15T11:08:35.123Z,9.6
2018-02-15T11:09:45.192Z,9.62
2018-02-15T11:10:54.744Z,9.6
2018-02-15T11:12:04.915Z,9.55
2018-02-15T11:13:14.985Z,9.5
2018-02-15T11:14:25.066Z,9.63
2018-02-15T11:15:35.173Z,9.64
2018-02-15T11:16:45.295Z,9.57
2018-02-15T11:17:55.112Z,9.63
2018-02-15T11:19:05.238Z,9.59
2018-02-15T11:20:15.305Z,9.56
2018-02-15T11:21:25.419Z,9.56
2018-02-15T11:22:35.473Z,9.62
2018-02-15T11:23:45.530Z,9.6
2018-02-15T11:24:55.589Z,9.63
2018-02-15T11:26:05.395Z,9.64
2018-02-15T11:27:15.576Z,9.67
2018-02-15T11:28:25.646Z,9.7
2018-02-15T11:29:35.733Z,9.64
2018-02-15T11:30:45.824Z,9.67
2018-02-15T11:31:55.906Z,9.67
2018-02-15T11:33:05.716Z,9.6
2018-02-15T11:34:15.769Z,9.63
2018-02-15T11:35:25.870Z,9.63
2018-02-15T11:36:35.924Z,9.56
2018-02-15T11:37:46.005Z,9.6
2018-02-15T11:38:56.208Z,9.62
2018-02-15T11:40:06.029Z,9.5
2018-02-15T11:41:16.139Z,9.38
2018-02-15T11:42:26.240Z,9.26
2018-02-15T11:43:36.543Z,9.29
2018-02-15T11:44:46.652Z,9.21
2018-02-15T11:45:56.716Z,9.14
2018-02-15T11:47:06.776Z,9.09
2018-02-15T11:48:16.855Z,8.94
2018-02-15T11:49:26.921Z,9.03
2018-02-15T11:50:37.121Z,8.95
2018-02-15T11:51:46.928Z,8.9
2018-02-15T11:52:56.471Z,8.97
2018-02-15T11:54:06.551Z,8.92
2018-02-15T11:55:16.614Z,8.94
2018-02-15T11:56:26.478Z,8.97
2018-02-15T11:57:36.634Z,8.98
2018-02-15T11:58:46.802Z,8.95
2018-02-15T11:59:58.127Z,9.01
2018-02-15T12:01:08.205Z,8.9
2018-02-15T12:02:18.016Z,9.24
2018-02-15T12:03:28.086Z,9.24
2018-02-15T12:04:37.625Z,9.5
2018-02-15T12:05:47.437Z,9.42
2018-02-15T12:06:57.494Z,9.35
2018-02-15T12:08:07.567Z,9.26
2018-02-15T12:09:17.616Z,9.19
2018-02-15T12:10:27.741Z,9.32
2018-02-15T12:11:37.814Z,9.29
2018-02-15T12:12:47.899Z,9.53
2018-02-15T12:13:57.931Z,9.82
2018-02-15T12:15:08.039Z,10.07
2018-02-15T12:16:18.113Z,10.15
2018-02-15T12:17:28.186Z,10.21
2018-02-15T12:18:37.991Z,10.25
2018-02-15T12:19:47.778Z,10.36
2018-02-15T12:20:58.139Z,10.33
2018-02-15T12:22:08.198Z,10.36
2018-02-15T12:23:18.275Z,10.46
2018-02-15T12:24:28.351Z,10.38
2018-02-15T12:25:38.414Z,10.41
2018-02-15T12:26:48.476Z,10.42
2018-02-15T12:27:58.615Z,10.49
2018-02-15T12:29:08.803Z,10.63
2018-02-15T12:30:18.843Z,10.69
2018-02-15T12:31:28.910Z,10.76
2018-02-15T12:32:38.711Z,10.84
2018-02-15T12:33:48.545Z,10.77
2018-02-15T12:34:58.714Z,10.92
2018-02-15T12:36:08.786Z,10.87
2018-02-15T12:37:18.588Z,10.94
2018-02-15T12:38:28.387Z,10.97
2018-02-15T12:39:38.452Z,10.98
2018-02-15T12:40:48.574Z,10.97
2018-02-15T12:41:58.830Z,10.95
2018-02-15T12:43:08.901Z,10.87
2018-02-15T12:44:18.702Z,10.88
2018-02-15T12:45:28.784Z,10.95
2018-02-15T12:46:38.841Z,11.12
2018-02-15T12:47:48.653Z,11.1
2018-02-15T12:48:58.759Z,11.27
2018-02-15T12:50:08.587Z,11.18
2018-02-15T12:51:18.672Z,11.23
2018-02-15T12:52:28.807Z,11.23
2018-02-15T12:53:38.962Z,11.41
2018-02-15T12:54:49.081Z,11.39
2018-02-15T12:55:59.370Z,11.42
2018-02-15T12:57:09.434Z,11.26
2018-02-15T12:58:19.493Z,11.2
2018-02-15T12:59:29.565Z,11.06
2018-02-15T13:00:42.446Z,11.05
2018-02-15T13:01:52.594Z,11
2018-02-15T13:03:02.698Z,10.95
2018-02-15T13:04:12.340Z,10.92
2018-02-15T13:05:23.449Z,11.06
2018-02-15T13:06:33.515Z,10.94
2018-02-15T13:07:43.607Z,10.87
2018-02-15T13:08:53.672Z,10.91
2018-02-15T13:10:03.748Z,10.88
2018-02-15T13:11:13.815Z,10.88
2018-02-15T13:12:23.354Z,10.88
2018-02-15T13:13:33.436Z,10.88
2018-02-15T13:14:43.545Z,10.88
2018-02-15T13:15:53.340Z,10.87
2018-02-15T13:17:04.258Z,10.9
2018-02-15T13:18:14.058Z,10.85
2018-02-15T13:19:23.882Z,10.79
2018-02-15T13:20:33.972Z,10.79
2018-02-15T13:21:44.080Z,10.73
2018-02-15T13:22:53.918Z,10.67
2018-02-15T13:24:03.976Z,10.55
2018-02-15T13:25:14.051Z,10.49
2018-02-15T13:26:23.847Z,10.49
2018-02-15T13:27:33.894Z,10.36
2018-02-15T13:28:43.978Z,10.31
2018-02-15T13:29:54.037Z,10.28
2018-02-15T13:31:03.836Z,10.15
2018-02-15T13:32:13.917Z,10.13
2018-02-15T13:33:24.049Z,10.15
2018-02-15T13:34:34.122Z,10.17
2018-02-15T13:35:44.193Z,10.23
2018-02-15T13:36:53.980Z,10.17
2018-02-15T13:38:03.784Z,10.08
2018-02-15T13:39:13.873Z,10.08
2018-02-15T13:40:23.994Z,9.9
2018-02-15T13:41:34.069Z,9.95
2018-02-15T13:42:44.135Z,9.75
2018-02-15T13:43:53.957Z,9.67
2018-02-15T13:45:04.072Z,9.63
2018-02-15T13:46:14.126Z,9.63
2018-02-15T13:47:23.934Z,9.62
2018-02-15T13:48:34.007Z,9.66
2018-02-15T13:49:44.092Z,9.52
2018-02-15T13:50:54.221Z,9.52
2018-02-15T13:52:04.028Z,9.64
2018-02-15T13:53:14.092Z,9.63
2018-02-15T13:54:24.181Z,9.72
2018-02-15T13:55:34.255Z,9.71
2018-02-15T13:56:44.106Z,9.7
2018-02-15T13:57:53.893Z,9.8
2018-02-15T13:59:03.981Z,9.74
2018-02-15T14:00:14.056Z,9.66
2018-02-15T14:01:24.156Z,9.57
2018-02-15T14:02:33.999Z,9.52
2018-02-15T14:03:44.080Z,9.57
2018-02-15T14:04:53.904Z,9.5
2018-02-15T14:06:04.005Z,9.42
2018-02-15T14:07:14.091Z,9.38
2018-02-15T14:08:23.892Z,9.3
2018-02-15T14:09:33.960Z,9.27
2018-02-15T14:10:44.034Z,9.24
2018-02-15T14:11:54.104Z,9.19
2018-02-15T14:13:04.187Z,9.08
2018-02-15T14:14:14.296Z,9.12
2018-02-15T14:15:24.355Z,9.01
2018-02-15T14:16:34.909Z,8.83
2018-02-15T14:17:44.975Z,8.74
2018-02-15T14:18:55.030Z,8.8
2018-02-15T14:20:05.090Z,8.82
2018-02-15T14:21:15.146Z,8.69
2018-02-15T14:22:24.981Z,8.62
2018-02-15T14:23:34.809Z,8.64
2018-02-15T14:24:44.611Z,8.44
2018-02-15T14:25:54.733Z,8.46
2018-02-15T14:27:04.781Z,8.47
2018-02-15T14:28:14.633Z,8.39
2018-02-15T14:29:24.438Z,8.4
2018-02-15T14:30:34.495Z,8.35
2018-02-15T14:31:44.095Z,8.34
2018-02-15T14:32:54.162Z,8.32
2018-02-15T14:34:04.223Z,8.29
2018-02-15T14:35:14.036Z,8.31
2018-02-15T14:36:24.110Z,8.46
2018-02-15T14:37:34.173Z,8.36
2018-02-15T14:38:44.230Z,8.42
2018-02-15T14:39:54.031Z,8.35
2018-02-15T14:41:04.096Z,8.39
2018-02-15T14:42:14.163Z,8.35
2018-02-15T14:43:24.247Z,8.39
2018-02-15T14:44:34.315Z,8.29
2018-02-15T14:45:44.379Z,8.29
2018-02-15T14:46:54.445Z,8.21
2018-02-15T14:48:04.239Z,8.28
2018-02-15T14:49:14.308Z,8.14
2018-02-15T14:50:24.366Z,8.13
2018-02-15T14:51:34.426Z,8.16
2018-02-15T14:52:44.218Z,8.1
2018-02-15T14:53:54.292Z,8.17
2018-02-15T14:55:04.375Z,8.03
2018-02-15T14:56:14.436Z,7.98
2018-02-15T14:57:24.489Z,8.06
2018-02-15T14:58:34.580Z,8.04
2018-02-15T14:59:44.655Z,7.99
2018-02-15T15:00:54.928Z,7.91
2018-02-15T15:02:04.970Z,7.89
2018-02-15T15:03:14.521Z,7.89
2018-02-15T15:04:24.872Z,7.82
2018-02-15T15:05:34.662Z,7.74
2018-02-15T15:06:44.740Z,7.77
2018-02-15T15:07:54.835Z,7.74
2018-02-15T15:09:04.926Z,7.77
2018-02-15T15:10:14.456Z,7.73
2018-02-15T15:11:25.004Z,7.67
2018-02-15T15:12:35.171Z,7.7
2018-02-15T15:13:44.980Z,7.68
2018-02-15T15:14:55.064Z,7.56
2018-02-15T15:16:06.407Z,7.55
2018-02-15T15:17:16.480Z,7.55
2018-02-15T15:18:26.602Z,7.51
2018-02-15T15:19:36.690Z,7.51
2018-02-15T15:20:46.768Z,7.49
2018-02-15T15:21:57.983Z,7.44
2018-02-15T15:23:08.070Z,7.45
2018-02-15T15:24:18.151Z,7.36
2018-02-15T15:25:28.220Z,7.4
2018-02-15T15:26:38.319Z,7.29
2018-02-15T15:27:48.132Z,7.21
2018-02-15T15:28:58.194Z,7.27
2018-02-15T15:30:08.037Z,7.29
2018-02-15T15:31:18.097Z,7.27
2018-02-15T15:32:27.920Z,7.21
2018-02-15T15:33:37.994Z,7.05
2018-02-15T15:34:48.058Z,7.16
2018-02-15T15:35:57.922Z,7.26
2018-02-15T15:37:07.988Z,7.13
2018-02-15T15:38:17.781Z,7.08
2018-02-15T15:39:27.839Z,7.09
2018-02-15T15:40:38.357Z,6.94
2018-02-15T15:41:48.419Z,7.01
2018-02-15T15:42:58.500Z,6.97
2018-02-15T15:44:09.367Z,6.85
2018-02-15T15:45:19.450Z,6.86
2018-02-15T15:46:29.516Z,6.88
2018-02-15T15:47:39.666Z,6.8
2018-02-15T15:48:49.732Z,6.73
2018-02-15T15:49:59.798Z,6.8
2018-02-15T15:51:09.614Z,6.79
2018-02-15T15:52:19.408Z,6.68
2018-02-15T15:53:29.528Z,6.72
2018-02-15T15:54:39.639Z,6.61
2018-02-15T15:55:49.168Z,6.64
2018-02-15T15:56:59.224Z,6.64
2018-02-15T15:58:09.290Z,6.58
2018-02-15T15:59:19.414Z,6.51
2018-02-15T16:00:29.287Z,6.46
2018-02-15T16:01:39.361Z,6.42